Time;durP1;ratioP1;P1;durP2;ratioP2;P2;SDS_P1;SDS_P2;PMS_P1;PMS_P2;Temp;Humidity;BMP_temperature;BMP_pressure;BME280_temperature;BME280_humidity;BME280_pressure;Samples;Min_cycle;Max_cycle;Signal;HPM_P1;HPM_P2
2022/01/10 00:01:53;;;;;;;25.58;14.70;;;;;;;0.48;87.35;101045.59;4984901;28;20022;-67
2022/01/10 00:04:21;;;;;;;24.20;14.48;;;;;;;0.47;87.59;101052.41;4992527;28;20038;-67
2022/01/10 00:06:47;;;;;;;20.65;13.48;;;;;;;0.45;87.54;101056.72;5001261;28;20088;-67
2022/01/10 00:09:17;;;;;;;25.23;14.32;;;;;;;0.44;87.39;101065.28;4974464;28;20379;-68
2022/01/10 00:11:45;;;;;;;23.45;13.93;;;;;;;0.41;87.34;101070.50;4993104;28;20035;-67
2022/01/10 00:14:23;;;;;;;20.65;14.38;;;;;;;0.40;87.40;101075.63;4964824;28;20088;-67
2022/01/10 00:16:57;;;;;;;26.02;14.00;;;;;;;0.41;87.33;101088.38;4991723;28;20041;-67
2022/01/10 00:19:25;;;;;;;24.40;14.55;;;;;;;0.38;87.50;101085.91;4992368;28;20030;-67
2022/01/10 00:21:59;;;;;;;26.55;14.48;;;;;;;0.33;87.44;101081.84;4991761;28;20026;-67
2022/01/10 00:24:35;;;;;;;23.48;14.20;;;;;;;0.33;87.41;101086.94;4984727;28;20085;-67
2022/01/10 00:27:11;;;;;;;25.48;14.48;;;;;;;0.35;87.82;101088.56;4992655;28;20033;-67
2022/01/10 00:29:42;;;;;;;20.83;13.45;;;;;;;0.29;87.66;101086.25;4992403;28;20034;-67
2022/01/10 00:32:23;;;;;;;26.33;14.02;;;;;;;0.31;87.39;101098.94;4992284;28;20037;-67
2022/01/10 00:34:50;;;;;;;20.98;13.68;;;;;;;0.29;87.53;101096.44;4982532;28;20068;-69
2022/01/10 00:37:34;;;;;;;22.27;13.98;;;;;;;0.28;87.55;101089.66;5002689;28;20034;-67
2022/01/10 00:40:06;;;;;;;19.50;14.52;;;;;;;0.23;87.68;101086.44;4991456;28;20068;-67
2022/01/10 00:42:34;;;;;;;21.50;14.05;;;;;;;0.25;87.71;101095.72;4991304;28;20038;-67
2022/01/10 00:45:23;;;;;;;23.98;14.75;;;;;;;0.24;87.79;101098.31;4974719;28;20475;-67
2022/01/10 00:48:10;;;;;;;23.42;14.63;;;;;;;0.25;87.53;101099.97;4980600;28;20067;-67
2022/01/10 00:50:43;;;;;;;24.67;15.45;;;;;;;0.23;87.34;101106.84;4990306;28;20064;-67
2022/01/10 00:53:20;;;;;;;21.67;14.85;;;;;;;0.17;87.31;101107.03;4992279;28;20125;-67
2022/01/10 00:56:00;;;;;;;22.40;14.73;;;;;;;0.19;87.28;101115.50;4991613;28;20097;-67
2022/01/10 00:58:42;;;;;;;27.08;14.93;;;;;;;0.18;87.48;101113.84;4990673;28;20125;-69
2022/01/10 01:01:18;;;;;;;27.58;16.20;;;;;;;0.13;87.52;101120.81;4991629;28;20022;-67
2022/01/10 01:03:55;;;;;;;21.70;15.02;;;;;;;0.16;87.76;101130.88;4990222;28;20031;-67
2022/01/10 01:06:25;;;;;;;27.70;15.82;;;;;;;0.12;87.74;101144.66;4991728;28;20030;-67
2022/01/10 01:09:01;;;;;;;25.08;14.40;;;;;;;0.01;87.57;101137.34;4991702;28;20045;-68
2022/01/10 01:14:25;;;;;;;23.08;14.38;;;;;;;0.09;87.56;101144.75;4991613;28;20084;-68
2022/01/10 01:25:36;;;;;;;22.85;14.63;;;;;;;0.04;87.15;101172.09;4976694;28;20040;-68
2022/01/10 01:28:04;;;;;;;26.60;15.23;;;;;;;0.02;87.39;101169.59;4971761;28;20100;-69
2022/01/10 01:30:33;;;;;;;22.45;14.23;;;;;;;0.03;87.27;101170.44;4975789;28;20106;-68
2022/01/10 01:33:04;;;;;;;24.48;15.40;;;;;;;-0.02;87.46;101173.97;4962968;28;20092;-69
2022/01/10 01:35:35;;;;;;;22.35;14.70;;;;;;;-0.03;87.53;101179.94;4976264;28;20121;-68
2022/01/10 01:38:10;;;;;;;24.42;15.57;;;;;;;-0.03;87.10;101199.50;4981610;28;20034;-68
2022/01/10 01:40:49;;;;;;;22.95;15.25;;;;;;;-0.07;87.62;101191.13;4971661;28;20043;-68
2022/01/10 01:43:20;;;;;;;26.10;14.95;;;;;;;-0.04;87.42;101206.34;4971958;28;20034;-69
2022/01/10 01:46:06;;;;;;;24.80;15.68;;;;;;;-0.08;87.57;101204.75;4970783;28;20038;-68
2022/01/10 01:48:32;;;;;;;28.17;15.63;;;;;;;-0.08;87.56;101214.13;4972029;28;20110;-69
2022/01/10 01:51:00;;;;;;;24.83;16.10;;;;;;;-0.10;87.62;101211.63;4954188;28;20073;-68
2022/01/10 01:53:30;;;;;;;24.95;15.35;;;;;;;-0.10;87.97;101229.47;4972144;28;20041;-68
2022/01/10 01:55:59;;;;;;;27.25;16.25;;;;;;;-0.09;87.95;101233.69;4969998;28;20364;-68
2022/01/10 01:58:39;;;;;;;27.50;16.90;;;;;;;-0.08;88.36;101234.50;4976842;28;20030;-69
2022/01/10 02:01:08;;;;;;;25.90;15.75;;;;;;;-0.09;88.30;101231.13;4953837;28;20023;-69
2022/01/10 02:03:47;;;;;;;28.52;17.58;;;;;;;-0.08;87.87;101229.41;4954439;28;20035;-69
2022/01/10 02:06:17;;;;;;;28.30;16.75;;;;;;;-0.13;87.97;101223.63;4969521;28;20051;-68
2022/01/10 02:08:45;;;;;;;28.02;17.40;;;;;;;-0.13;87.99;101224.44;4971538;28;20062;-69
2022/01/10 02:11:15;;;;;;;29.55;16.63;;;;;;;-0.11;88.09;101237.19;4971435;28;20042;-68
2022/01/10 02:13:44;;;;;;;26.85;17.88;;;;;;;-0.14;88.46;101225.34;4971437;28;20034;-69
2022/01/10 02:16:19;;;;;;;25.13;17.40;;;;;;;-0.13;88.30;101236.38;4970667;28;20537;-68
2022/01/10 02:18:45;;;;;;;30.42;18.58;;;;;;;-0.10;88.22;101246.50;4971941;28;20062;-68
2022/01/10 02:21:10;;;;;;;26.83;17.38;;;;;;;-0.09;88.08;101246.44;4981490;28;20065;-69
2022/01/10 02:23:37;;;;;;;33.35;17.98;;;;;;;-0.10;88.00;101252.41;4962848;28;20517;-68
2022/01/10 02:26:06;;;;;;;28.38;18.65;;;;;;;-0.09;88.23;101264.28;4989250;28;20030;-69
2022/01/10 02:28:32;;;;;;;28.73;18.40;;;;;;;-0.08;88.65;101258.28;4990962;28;20049;-68
2022/01/10 02:31:03;;;;;;;27.35;17.50;;;;;;;-0.09;88.28;101258.34;4990585;28;20352;-68
2022/01/10 02:33:33;;;;;;;31.85;18.35;;;;;;;-0.07;88.50;101271.88;4990813;28;20121;-68
2022/01/10 02:38:35;;;;;;;28.20;17.70;;;;;;;-0.07;88.33;101267.59;4990836;28;20042;-68
2022/01/10 02:41:05;;;;;;;27.92;18.13;;;;;;;-0.05;88.17;101295.63;4989949;28;20457;-68
2022/01/10 02:43:44;;;;;;;28.50;17.67;;;;;;;-0.06;88.61;101294.78;4990280;28;20069;-68
2022/01/10 02:46:12;;;;;;;28.05;16.23;;;;;;;-0.06;88.46;101294.78;4990792;28;20049;-68
2022/01/10 02:48:41;;;;;;;25.58;16.27;;;;;;;-0.04;88.32;101302.41;4973066;28;20046;-68
2022/01/10 02:51:09;;;;;;;32.72;18.70;;;;;;;-0.03;88.95;101322.75;4990583;28;20038;-68
2022/01/10 02:53:40;;;;;;;29.20;17.85;;;;;;;-0.02;89.06;101321.84;4973224;28;20085;-68
2022/01/10 02:56:06;;;;;;;30.02;18.27;;;;;;;-0.01;88.93;101318.41;4989815;28;20080;-68
2022/01/10 02:58:37;;;;;;;31.98;19.25;;;;;;;0.01;89.19;101325.22;4990661;28;20533;-68
2022/01/10 03:01:04;;;;;;;29.88;18.27;;;;;;;0.01;89.16;101323.50;4990334;28;20030;-68
2022/01/10 03:03:32;;;;;;;30.98;19.85;;;;;;;0.01;89.15;101323.50;4978907;28;20030;-68
2022/01/10 03:06:17;;;;;;;28.30;18.27;;;;;;;0.06;89.62;101328.44;4991467;28;20088;-68
2022/01/10 03:08:51;;;;;;;32.30;18.45;;;;;;;0.05;89.40;101331.88;4993970;28;20065;-68
2022/01/10 03:11:19;;;;;;;32.90;18.95;;;;;;;0.05;89.78;101337.78;4994261;28;20034;-68
2022/01/10 03:13:47;;;;;;;33.33;19.08;;;;;;;0.09;89.61;101338.56;4992018;28;20068;-68
2022/01/10 03:16:18;;;;;;;32.58;18.75;;;;;;;0.11;89.54;101341.88;4993874;28;20474;-68
2022/01/10 03:18:46;;;;;;;30.88;18.85;;;;;;;0.10;89.46;101351.25;4993550;28;20041;-66
2022/01/10 03:21:19;;;;;;;30.67;18.45;;;;;;;0.12;89.47;101358.88;4993681;28;20054;-66
2022/01/10 03:23:51;;;;;;;31.15;20.15;;;;;;;0.12;89.61;101359.72;4975942;28;20162;-66
2022/01/10 03:26:20;;;;;;;31.20;19.80;;;;;;;0.13;89.89;101356.28;4992660;28;20189;-66
2022/01/10 03:28:48;;;;;;;32.17;19.48;;;;;;;0.14;89.40;101346.91;4986651;28;20038;-65
2022/01/10 03:31:18;;;;;;;27.73;18.20;;;;;;;0.17;89.55;101359.56;4965006;28;20027;-69
2022/01/10 03:33:56;;;;;;;30.63;20.08;;;;;;;0.16;89.67;101356.16;4992543;28;20066;-72
2022/01/10 03:36:25;;;;;;;28.93;18.50;;;;;;;0.15;89.39;101371.53;4994095;28;20053;-66
2022/01/10 03:38:59;;;;;;;33.83;18.67;;;;;;;0.16;89.28;101373.19;4993577;28;20285;-66
2022/01/10 03:41:35;;;;;;;;;;;;;;;;;;;;;
2022/01/10 03:44:00;;;;;;;30.67;19.85;;;;;;;0.21;89.55;101395.13;4992322;28;20040;-66
2022/01/10 03:46:28;;;;;;;31.77;19.83;;;;;;;0.23;89.87;101384.88;4993261;28;20042;-66
2022/01/10 03:48:53;;;;;;;33.05;20.08;;;;;;;0.24;89.66;101394.22;4992607;28;20038;-66
2022/01/10 03:51:24;;;;;;;27.70;18.48;;;;;;;0.24;89.82;101399.31;4993499;28;20026;-65
2022/01/10 03:53:53;;;;;;;34.65;19.65;;;;;;;0.26;89.67;101400.09;4993073;28;20030;-65
2022/01/10 03:56:19;;;;;;;;;;;;;;;0.33;89.65;101409.25;4993577;28;20026;-65
2022/01/10 03:58:45;;;;;;;29.17;17.65;;;;;;;0.30;89.59;101413.63;4993216;28;19917;-66
2022/01/10 04:01:13;;;;;;;30.42;19.10;;;;;;;0.31;89.91;101416.13;4991026;28;20382;-65
2022/01/10 04:03:44;;;;;;;30.57;18.63;;;;;;;0.32;90.11;101424.59;4993096;28;20030;-64
2022/01/10 04:06:13;;;;;;;27.98;19.10;;;;;;;0.32;90.13;101428.00;4975197;28;20121;-65
2022/01/10 04:08:42;;;;;;;33.83;19.63;;;;;;;0.33;89.79;101432.19;4991178;28;20113;-65
2022/01/10 04:11:10;;;;;;;32.20;18.45;;;;;;;0.35;89.73;101433.00;4992874;28;20037;-65
2022/01/10 04:13:41;;;;;;;31.52;18.95;;;;;;;0.35;90.06;101432.19;4974882;28;20090;-65
2022/01/10 04:16:07;;;;;;;32.50;19.70;;;;;;;0.36;90.08;101433.84;4975297;28;20045;-65
2022/01/10 04:18:38;;;;;;;28.38;18.63;;;;;;;0.36;90.41;101438.94;4991785;28;20038;-65
2022/01/10 04:21:07;;;;;;;32.95;19.55;;;;;;;0.36;90.46;101442.34;4992520;28;20137;-65
2022/01/10 04:23:32;;;;;;;34.72;19.63;;;;;;;0.32;90.28;101433.09;4992575;28;20046;-66
2022/01/10 04:25:58;;;;;;;36.03;20.60;;;;;;;0.38;90.44;101463.53;4975296;28;20398;-66
2022/01/10 04:28:26;;;;;;;29.17;19.00;;;;;;;0.37;90.40;101461.84;4973560;28;20038;-65
2022/01/10 04:30:52;;;;;;;29.45;18.20;;;;;;;0.37;90.05;101472.06;4992618;28;20034;-65
2022/01/10 04:33:21;;;;;;;29.30;18.60;;;;;;;0.33;90.29;101473.03;4992510;28;20463;-66
2022/01/10 04:35:53;;;;;;;30.75;19.88;;;;;;;0.36;90.16;101478.06;4992888;28;20030;-65
2022/01/10 04:38:18;;;;;;;30.75;18.92;;;;;;;0.35;90.16;101483.22;4992430;28;20030;-65
2022/01/10 04:40:44;;;;;;;28.48;18.85;;;;;;;0.34;90.09;101482.34;4990800;28;20054;-65
2022/01/10 04:43:15;;;;;;;29.80;19.60;;;;;;;0.34;89.77;101492.56;4991951;28;20398;-65
2022/01/10 04:45:43;;;;;;;35.03;21.33;;;;;;;0.32;89.84;101494.31;4991838;28;20265;-65
2022/01/10 04:48:15;;;;;;;35.03;18.27;;;;;;;0.35;90.13;101504.44;4991207;28;20030;-67
2022/01/10 04:53:33;;;;;;;29.63;19.15;;;;;;;0.33;90.17;101513.84;4987011;28;20077;-65
2022/01/10 04:56:02;;;;;;;29.63;17.75;;;;;;;0.34;90.39;101523.16;4991519;28;20060;-65
2022/01/10 04:58:30;;;;;;;;;;;;;;;0.40;90.18;101523.03;4992192;28;20037;-65
2022/01/10 05:01:08;;;;;;;29.13;17.10;;;;;;;0.34;89.96;101530.81;4991695;28;19959;-66
2022/01/10 05:03:34;;;;;;;27.58;17.67;;;;;;;0.35;90.13;101537.63;4989352;28;20022;-66
2022/01/10 05:06:05;;;;;;;31.65;19.10;;;;;;;0.36;90.44;101535.91;4989959;28;20395;-65
2022/01/10 05:08:36;;;;;;;30.48;19.77;;;;;;;0.37;90.60;101542.69;4990488;28;20037;-67
2022/01/10 05:11:07;;;;;;;26.52;19.13;;;;;;;0.36;90.46;101546.13;4990364;28;20042;-65
2022/01/10 05:13:41;;;;;;;29.83;18.33;;;;;;;0.39;90.49;101551.94;4989517;28;20027;-67
2022/01/10 05:16:12;;;;;;;32.13;19.75;;;;;;;0.36;90.31;101556.31;4991089;28;20056;-66
2022/01/10 05:18:38;;;;;;;32.05;19.33;;;;;;;0.38;90.39;101570.69;4991222;28;20034;-67
2022/01/10 05:21:12;;;;;;;36.13;19.83;;;;;;;0.36;90.52;101562.25;4980162;28;20525;-66
2022/01/10 05:23:37;;;;;;;29.13;17.65;;;;;;;0.37;90.35;101574.13;4986974;28;20100;-66
2022/01/10 05:26:06;;;;;;;31.77;19.15;;;;;;;0.38;90.62;101578.34;4991361;28;20423;-66
2022/01/10 05:28:35;;;;;;;29.65;18.42;;;;;;;0.39;90.63;101580.00;4990267;28;20023;-66
2022/01/10 05:31:01;;;;;;;28.48;19.75;;;;;;;0.40;90.78;101576.63;4991826;28;20038;-66
2022/01/10 05:33:27;;;;;;;29.08;18.50;;;;;;;0.37;90.71;101579.22;4991293;28;20475;-66
2022/01/10 05:35:55;;;;;;;32.63;20.45;;;;;;;0.36;90.68;101580.13;4991602;28;20045;-66
2022/01/10 05:38:21;;;;;;;31.37;19.43;;;;;;;0.40;90.65;101598.72;4991409;28;20018;-66
2022/01/10 05:40:49;;;;;;;30.30;19.55;;;;;;;0.39;90.64;101615.75;4990225;28;20411;-67
2022/01/10 05:43:17;;;;;;;31.15;18.90;;;;;;;0.40;90.64;101625.09;4966588;28;20082;-67
2022/01/10 05:45:50;;;;;;;28.23;18.77;;;;;;;0.39;90.54;101620.84;4988209;28;20058;-68
2022/01/10 05:48:22;;;;;;;30.88;18.75;;;;;;;0.41;90.80;101631.88;4989837;28;20030;-66
2022/01/10 05:50:48;;;;;;;28.02;18.35;;;;;;;0.40;90.80;101632.75;4991013;28;20081;-67
2022/01/10 05:53:14;;;;;;;31.13;19.60;;;;;;;0.39;90.83;101633.59;4973492;28;20117;-66
2022/01/10 05:55:47;;;;;;;31.33;19.90;;;;;;;0.42;90.68;101638.63;4990839;28;20117;-66
2022/01/10 05:58:16;;;;;;;27.23;18.45;;;;;;;0.41;90.39;101642.06;4991383;28;20033;-66
2022/01/10 06:00:49;;;;;;;27.88;18.80;;;;;;;0.44;90.75;101636.88;4989761;28;20525;-67
2022/01/10 06:03:18;;;;;;;31.23;19.08;;;;;;;0.43;90.66;101630.09;4987037;28;20068;-66
2022/01/10 06:05:46;;;;;;;27.98;18.40;;;;;;;0.45;90.60;101643.66;4990334;28;20034;-66
2022/01/10 06:08:15;;;;;;;35.60;19.02;;;;;;;0.45;90.70;101645.38;4986407;28;20033;-68
2022/01/10 06:10:46;;;;;;;29.20;18.85;;;;;;;0.46;90.58;101652.13;4990218;28;20042;-67
2022/01/10 06:13:14;;;;;;;33.17;19.42;;;;;;;0.41;90.77;101657.38;4988140;28;20026;-67
2022/01/10 06:15:42;;;;;;;32.80;18.93;;;;;;;0.45;90.56;101661.50;4989797;28;20026;-66
2022/01/10 06:18:10;;;;;;;28.25;18.00;;;;;;;0.45;90.29;101658.97;4990793;28;20289;-67
2022/01/10 06:20:43;;;;;;;35.70;19.90;;;;;;;0.47;90.93;101664.88;4990212;28;20026;-68
2022/01/10 06:23:11;;;;;;;41.17;26.23;;;;;;;0.46;90.88;101675.09;4970641;28;20054;-67
2022/01/10 06:25:46;;;;;;;39.97;21.98;;;;;;;0.48;90.76;101674.22;4990205;28;20036;-67
2022/01/10 06:28:18;;;;;;;31.63;19.88;;;;;;;0.48;90.88;101689.53;4990332;28;20026;-67
2022/01/10 06:30:54;;;;;;;31.90;19.17;;;;;;;0.49;90.71;101701.41;4987789;28;20032;-67
2022/01/10 06:33:28;;;;;;;31.75;19.15;;;;;;;0.50;90.67;101703.06;4972010;28;20034;-67
2022/01/10 06:35:53;;;;;;;32.40;20.52;;;;;;;0.51;90.82;101707.28;4983521;28;20519;-67
2022/01/10 06:38:21;;;;;;;31.67;18.75;;;;;;;0.50;91.20;101718.38;4972274;28;20109;-67
2022/01/10 06:40:47;;;;;;;27.95;18.95;;;;;;;0.48;90.76;101720.16;4973635;28;20034;-67
2022/01/10 06:43:12;;;;;;;33.70;19.45;;;;;;;0.49;90.95;101721.81;4993092;28;20493;-67
2022/01/10 06:45:41;;;;;;;33.15;20.02;;;;;;;0.47;90.80;101723.59;4993705;28;20076;-67
2022/01/10 06:48:10;;;;;;;34.28;19.02;;;;;;;0.49;90.88;101726.09;4992295;28;20076;-67
2022/01/10 06:50:36;;;;;;;33.13;20.35;;;;;;;0.51;90.89;101721.78;4976018;28;20494;-67
2022/01/10 06:53:06;;;;;;;32.70;19.45;;;;;;;0.50;90.62;101728.59;4993289;28;20042;-68
2022/01/10 06:55:37;;;;;;;32.80;20.48;;;;;;;0.51;90.97;101737.91;4993776;28;20489;-67
2022/01/10 06:58:05;;;;;;;32.00;20.73;;;;;;;0.50;90.98;101731.16;4991966;28;20101;-66
2022/01/10 07:00:41;;;;;;;32.05;20.15;;;;;;;0.52;91.17;101744.72;4994047;28;20041;-67
2022/01/10 07:03:07;;;;;;;30.85;21.15;;;;;;;0.48;90.85;101755.88;4992045;28;20486;-68
2022/01/10 07:05:32;;;;;;;32.97;21.15;;;;;;;0.52;91.04;101754.94;4994521;28;20038;-67
2022/01/10 07:08:03;;;;;;;32.17;20.80;;;;;;;0.51;91.02;101766.00;4994133;28;20509;-67
2022/01/10 07:10:28;;;;;;;33.72;21.92;;;;;;;0.52;90.90;101770.25;4991974;28;20083;-67
2022/01/10 07:13:01;;;;;;;32.85;21.80;;;;;;;0.51;91.00;101771.09;4983692;28;20491;-68
2022/01/10 07:15:29;;;;;;;29.15;19.83;;;;;;;0.51;91.09;101771.09;4986514;28;20117;-67
2022/01/10 07:18:15;;;;;;;33.70;21.05;;;;;;;0.50;90.68;101779.63;4991388;28;20069;-68
2022/01/10 07:20:42;;;;;;;33.10;20.48;;;;;;;0.50;91.01;101789.84;4992629;28;20022;-67
2022/01/10 07:23:16;;;;;;;34.63;21.52;;;;;;;0.45;90.89;101791.66;4989600;28;20129;-67
2022/01/10 07:25:41;;;;;;;32.58;21.38;;;;;;;0.49;90.79;101813.69;4992253;28;20481;-67
2022/01/10 07:28:12;;;;;;;34.58;21.42;;;;;;;0.48;90.85;101817.13;4993707;28;20044;-67
2022/01/10 07:30:40;;;;;;;32.75;21.05;;;;;;;0.49;91.12;101818.81;4993808;28;20487;-67
2022/01/10 07:33:08;;;;;;;35.45;21.55;;;;;;;0.46;90.70;101821.44;4974903;28;20492;-67
2022/01/10 07:35:34;;;;;;;34.33;21.42;;;;;;;0.48;90.64;101827.34;4992762;28;20034;-67
2022/01/10 07:38:05;;;;;;;39.42;23.27;;;;;;;0.46;90.89;101824.00;4993579;28;20473;-68
2022/01/10 07:40:32;;;;;;;34.72;21.45;;;;;;;0.45;90.72;101824.84;4975912;28;20466;-67
2022/01/10 07:43:00;;;;;;;36.78;22.70;;;;;;;0.46;90.63;101834.22;4992895;28;20022;-68
2022/01/10 07:45:26;;;;;;;42.30;25.92;;;;;;;0.45;90.80;101847.81;4988331;28;20289;-67
2022/01/10 07:48:02;;;;;;;35.58;22.45;;;;;;;0.45;91.12;101858.03;4993572;28;20026;-67
2022/01/10 07:50:32;;;;;;;37.97;22.85;;;;;;;0.43;90.79;101854.69;4991682;28;20034;-67
2022/01/10 07:53:00;;;;;;;35.60;22.83;;;;;;;0.43;90.98;101864.88;4991531;28;20042;-67
2022/01/10 07:55:30;;;;;;;34.95;23.33;;;;;;;0.45;91.12;101873.34;4992671;28;20030;-67
2022/01/10 07:57:58;;;;;;;38.13;23.02;;;;;;;0.41;90.48;101876.84;4991483;28;20030;-67
2022/01/10 08:00:26;;;;;;;33.53;21.27;;;;;;;0.41;90.54;101881.13;4973313;28;20045;-68
2022/01/10 08:02:54;;;;;;;32.08;20.70;;;;;;;0.44;90.76;101883.59;4990313;28;20019;-67
2022/01/10 08:05:26;;;;;;;34.70;21.37;;;;;;;0.43;91.04;101889.56;4988391;28;20513;-68
2022/01/10 08:07:51;;;;;;;35.85;22.10;;;;;;;0.41;90.69;101902.38;4992487;28;20033;-68
2022/01/10 08:10:26;;;;;;;33.33;21.80;;;;;;;0.42;90.54;101904.03;4991324;28;20035;-68
2022/01/10 08:12:55;;;;;;;30.27;21.27;;;;;;;0.42;90.83;101914.25;4973760;28;20038;-68
2022/01/10 08:15:28;;;;;;;31.45;20.88;;;;;;;0.39;90.73;101904.09;4990810;28;20026;-67
2022/01/10 08:18:02;;;;;;;35.45;21.80;;;;;;;0.39;90.46;101924.50;4990088;28;20419;-67
2022/01/10 08:20:32;;;;;;;34.75;22.55;;;;;;;0.38;91.02;101916.91;4990848;28;20109;-67
2022/01/10 08:22:58;;;;;;;37.08;21.50;;;;;;;0.40;90.64;101920.25;4991181;28;20023;-68
2022/01/10 08:25:26;;;;;;;35.05;21.40;;;;;;;0.38;90.50;101922.84;4992061;28;20045;-67
2022/01/10 08:27:59;;;;;;;35.15;20.90;;;;;;;0.39;90.67;101929.63;4991956;28;20030;-67
2022/01/10 08:30:30;;;;;;;33.67;22.25;;;;;;;0.39;90.59;101941.53;4992143;28;20073;-67
2022/01/10 08:33:03;;;;;;;39.17;23.80;;;;;;;0.38;90.94;101952.63;4991961;28;20026;-67
2022/01/10 08:35:29;;;;;;;39.72;22.98;;;;;;;0.38;90.78;101948.38;4991771;28;20447;-67
2022/01/10 08:37:54;;;;;;;34.63;23.10;;;;;;;0.39;91.11;101959.41;4992565;28;20038;-67
2022/01/10 08:40:25;;;;;;;36.58;23.35;;;;;;;0.38;90.92;101963.66;4974502;28;20151;-67
2022/01/10 08:43:06;;;;;;;35.10;22.55;;;;;;;0.43;91.04;101977.19;4990989;28;20045;-67
2022/01/10 08:45:32;;;;;;;36.45;23.80;;;;;;;0.46;91.33;101983.91;4991805;28;20124;-67
2022/01/10 08:48:04;;;;;;;32.03;23.13;;;;;;;0.46;91.21;101984.78;4992209;28;20071;-67
2022/01/10 08:50:33;;;;;;;36.38;24.08;;;;;;;0.49;91.33;101982.16;4981389;28;20026;-67
2022/01/10 08:53:07;;;;;;;39.33;24.35;;;;;;;0.49;91.26;101997.47;4961787;28;20383;-67
2022/01/10 08:55:33;;;;;;;34.83;23.55;;;;;;;0.53;91.23;101999.09;4991456;28;20030;-67
2022/01/10 08:58:03;;;;;;;35.00;23.70;;;;;;;0.55;91.38;102005.88;4980862;28;20038;-67
2022/01/10 09:00:32;;;;;;;36.80;25.17;;;;;;;0.58;91.17;102011.75;4991948;28;20050;-67
2022/01/10 09:02:57;;;;;;;37.95;22.38;;;;;;;0.61;91.36;102015.94;4991346;28;20889;-67
2022/01/10 09:05:33;;;;;;;40.08;24.65;;;;;;;0.63;91.53;102014.19;4992051;28;20026;-67
2022/01/10 09:08:09;;;;;;;35.78;22.85;;;;;;;0.63;91.17;102019.31;4992228;28;20038;-67
2022/01/10 09:10:36;;;;;;;37.50;24.52;;;;;;;0.65;91.19;102017.56;4990361;28;20390;-67
2022/01/10 09:13:07;;;;;;;38.03;22.52;;;;;;;0.68;91.37;102022.59;4991251;28;20487;-67
2022/01/10 09:15:32;;;;;;;39.20;24.77;;;;;;;0.70;91.75;102031.09;4980045;28;20038;-67
2022/01/10 09:17:58;;;;;;;33.83;23.67;;;;;;;0.72;91.62;102034.44;4989807;28;20088;-67
2022/01/10 09:20:29;;;;;;;38.10;24.77;;;;;;;0.72;91.35;102029.34;4974299;28;20090;-67
2022/01/10 09:22:57;;;;;;;36.70;24.33;;;;;;;0.71;91.38;102038.72;4990161;28;20487;-68
2022/01/10 09:25:28;;;;;;;35.38;22.75;;;;;;;0.76;91.29;102041.16;4984793;28;20042;-67
2022/01/10 09:28:00;;;;;;;40.15;25.33;;;;;;;0.77;91.61;102037.75;4983058;28;20037;-67
2022/01/10 09:30:27;;;;;;;36.72;25.85;;;;;;;0.76;91.57;102041.16;4956525;28;20030;-67
2022/01/10 09:33:01;;;;;;;39.53;25.37;;;;;;;0.80;91.23;102047.88;4969711;28;20023;-67
2022/01/10 09:35:27;;;;;;;36.53;25.30;;;;;;;0.82;91.48;102051.25;4964540;28;20146;-67
2022/01/10 09:37:55;;;;;;;40.13;24.60;;;;;;;0.85;91.58;102051.16;4965477;28;20059;-67
2022/01/10 09:40:29;;;;;;;39.58;24.48;;;;;;;0.86;91.64;102055.44;4967115;28;20031;-67
2022/01/10 09:43:03;;;;;;;40.58;24.77;;;;;;;0.86;91.52;102057.97;4966963;28;20506;-67
2022/01/10 09:45:34;;;;;;;38.58;23.25;;;;;;;0.91;91.21;102066.38;4951867;28;20061;-67
2022/01/10 09:48:05;;;;;;;35.40;24.27;;;;;;;0.92;91.40;102062.09;4964816;28;20034;-67
2022/01/10 09:50:36;;;;;;;36.33;24.02;;;;;;;0.92;91.19;102068.06;4954857;28;20034;-67
2022/01/10 09:53:05;;;;;;;35.67;23.58;;;;;;;0.96;91.22;102079.03;4966000;28;20097;-67
2022/01/10 09:55:34;;;;;;;;;;;;;;;1.05;91.21;102078.84;4968039;28;20038;-68
2022/01/10 09:58:03;;;;;;;;;;;;;;;1.09;90.84;102084.72;4964246;28;19925;-68
2022/01/10 10:00:36;;;;;;;31.33;21.20;;;;;;;1.06;90.92;102091.59;4971787;28;20017;-67
2022/01/10 10:03:10;;;;;;;32.35;21.80;;;;;;;1.10;91.04;102104.31;4987720;28;20069;-67
2022/01/10 10:05:47;;;;;;;37.15;22.48;;;;;;;1.12;91.13;102105.09;4970261;28;20038;-67
2022/01/10 10:08:19;;;;;;;33.60;22.38;;;;;;;1.16;91.42;102109.28;4964047;28;20110;-68
2022/01/10 10:10:48;;;;;;;30.45;21.25;;;;;;;1.18;91.01;102112.63;4963041;28;20074;-67
2022/01/10 10:13:24;;;;;;;36.45;22.65;;;;;;;1.18;91.69;102117.75;4964760;28;20033;-67
2022/01/10 10:15:50;;;;;;;33.30;22.08;;;;;;;1.23;91.43;102123.59;4965945;28;20105;-67
2022/01/10 10:18:22;;;;;;;34.92;21.95;;;;;;;1.26;91.51;102133.75;4971274;28;20482;-67
2022/01/10 10:20:50;;;;;;;32.17;22.83;;;;;;;1.26;91.53;102128.63;4973964;28;20402;-68
2022/01/10 10:23:23;;;;;;;32.83;22.27;;;;;;;1.32;91.79;102138.75;4977102;28;20514;-68
2022/01/10 10:25:51;;;;;;;34.67;21.40;;;;;;;1.34;91.18;102142.09;4986760;28;20045;-67
2022/01/10 10:28:17;;;;;;;36.25;23.02;;;;;;;1.37;91.60;102141.19;4988469;28;20118;-67
2022/01/10 10:31:03;;;;;;;35.80;23.23;;;;;;;1.43;91.49;102152.09;4990919;28;20639;-67
2022/01/10 10:33:31;;;;;;;31.85;22.38;;;;;;;1.48;91.23;102155.41;4985709;28;20034;-67
2022/01/10 10:36:07;;;;;;;31.25;21.27;;;;;;;1.50;91.53;102158.78;4990034;28;20418;-67
2022/01/10 10:38:34;;;;;;;37.03;23.70;;;;;;;1.54;91.26;102162.94;4988951;28;20034;-67
2022/01/10 10:41:03;;;;;;;32.95;22.88;;;;;;;1.57;91.37;102157.75;4985062;28;20026;-67
2022/01/10 10:43:38;;;;;;;33.80;22.13;;;;;;;1.63;91.23;102168.72;4969467;28;20361;-67
2022/01/10 10:46:15;;;;;;;34.10;21.95;;;;;;;1.68;91.18;102172.03;4988972;28;20032;-67
2022/01/10 10:48:58;;;;;;;32.75;21.55;;;;;;;1.74;91.62;102177.00;4988764;28;20033;-67
2022/01/10 10:51:35;;;;;;;36.30;22.15;;;;;;;1.76;91.58;102162.44;4989071;28;20064;-68
2022/01/10 10:54:09;;;;;;;35.15;21.15;;;;;;;1.80;91.55;102171.75;4985451;28;20057;-67
2022/01/10 10:56:45;;;;;;;29.83;20.02;;;;;;;1.81;90.87;102178.53;4992748;28;20038;-67
2022/01/10 10:59:13;;;;;;;30.40;20.33;;;;;;;1.85;90.88;102180.16;4994559;28;20064;-67
2022/01/10 11:01:42;;;;;;;;;;;;;;;1.94;90.68;102185.03;4994509;28;20108;-68
2022/01/10 11:04:21;;;;;;;31.23;19.45;;;;;;;1.94;91.11;102189.31;4991098;28;19917;-67
2022/01/10 11:06:55;;;;;;;31.48;21.25;;;;;;;1.97;91.02;102195.22;4989606;28;20076;-67
2022/01/10 11:09:27;;;;;;;34.15;20.75;;;;;;;2.04;90.89;102206.97;4969863;28;20037;-68
2022/01/10 11:11:58;;;;;;;32.13;21.70;;;;;;;2.06;91.15;102194.97;4988280;28;20378;-67
2022/01/10 11:14:24;;;;;;;33.25;21.25;;;;;;;2.11;90.80;102205.94;4985539;28;20137;-67
2022/01/10 11:16:52;;;;;;;34.17;20.73;;;;;;;2.15;90.71;102211.00;4988830;28;20034;-67
2022/01/10 11:19:32;;;;;;;32.77;20.17;;;;;;;2.17;90.94;102215.19;4988398;28;20447;-66
2022/01/10 11:22:11;;;;;;;32.42;20.67;;;;;;;2.20;90.40;102216.84;4988024;28;20060;-67
2022/01/10 11:24:53;;;;;;;29.33;20.00;;;;;;;2.24;90.30;102218.47;4986781;28;20050;-67
2022/01/10 11:27:29;;;;;;;33.53;20.77;;;;;;;2.26;89.98;102221.81;4985127;28;20026;-67
2022/01/10 11:30:02;;;;;;;32.35;21.73;;;;;;;2.28;90.03;102222.59;4967247;28;20037;-67
2022/01/10 11:33:01;;;;;;;35.00;22.38;;;;;;;2.30;89.97;102215.75;4969183;28;20057;-67
2022/01/10 11:35:33;;;;;;;33.67;21.58;;;;;;;2.32;90.91;102227.63;4982301;28;20045;-67
2022/01/10 11:38:00;;;;;;;33.10;20.30;;;;;;;2.33;90.07;102234.41;4993465;28;20470;-66
2022/01/10 11:40:26;;;;;;;31.45;19.95;;;;;;;2.37;89.89;102230.06;4992061;28;20073;-66
2022/01/10 11:43:02;;;;;;;32.72;20.33;;;;;;;2.36;90.14;102213.03;4986952;28;20089;-67
2022/01/10 11:45:27;;;;;;;29.55;18.10;;;;;;;2.41;90.20;102226.56;4987844;28;20030;-67
2022/01/10 11:48:02;;;;;;;31.45;19.50;;;;;;;2.47;90.12;102241.78;4984681;28;20034;-68
2022/01/10 11:50:30;;;;;;;31.88;18.80;;;;;;;2.48;89.38;102248.56;4986026;28;20057;-66
2022/01/10 11:52:57;;;;;;;32.50;19.27;;;;;;;2.48;89.64;102238.34;4986118;28;20476;-66